sensor_id;sensor_type;location;lat;lon;timestamp;pressure;altitude;pressure_sealevel;temperature;humidity
63395;BME280;49531;-34.520;150.798;2023-05-24T00:01:20;101665.34;;;18.39;41.39
63395;BME280;49531;-34.520;150.798;2023-05-24T00:03:52;101671.44;;;18.53;40.80
63395;BME280;49531;-34.520;150.798;2023-05-24T00:06:20;101655.03;;;18.48;41.19
63395;BME280;49531;-34.520;150.798;2023-05-24T00:08:47;101669.31;;;18.61;40.63
63395;BME280;49531;-34.520;150.798;2023-05-24T00:11:14;101660.34;;;18.61;40.44
63395;BME280;49531;-34.520;150.798;2023-05-24T00:13:41;101662.91;;;18.74;40.61
63395;BME280;49531;-34.520;150.798;2023-05-24T00:16:08;101663.97;;;18.73;40.72
63395;BME280;49531;-34.520;150.798;2023-05-24T00:18:36;101658.94;;;18.77;40.56
63395;BME280;49531;-34.520;150.798;2023-05-24T00:21:07;101649.06;;;18.82;40.59
63395;BME280;49531;-34.520;150.798;2023-05-24T00:23:34;101661.63;;;18.95;40.16
63395;BME280;49531;-34.520;150.798;2023-05-24T00:26:03;101659.75;;;18.95;39.93
63395;BME280;49531;-34.520;150.798;2023-05-24T00:28:30;101654.69;;;18.99;40.03
63395;BME280;49531;-34.520;150.798;2023-05-24T00:30:58;101662.28;;;19.09;39.60
63395;BME280;49531;-34.520;150.798;2023-05-24T00:33:25;101663.28;;;19.14;39.74
63395;BME280;49531;-34.520;150.798;2023-05-24T00:35:54;101659.06;;;19.18;39.49
63395;BME280;49531;-34.520;150.798;2023-05-24T00:38:23;101661.16;;;19.16;39.64
63395;BME280;49531;-34.520;150.798;2023-05-24T00:40:51;101646.06;;;19.20;39.39
63395;BME280;49531;-34.520;150.798;2023-05-24T00:43:18;101648.09;;;19.25;38.91
63395;BME280;49531;-34.520;150.798;2023-05-24T00:45:46;101642.00;;;19.29;38.95
63395;BME280;49531;-34.520;150.798;2023-05-24T00:48:13;101636.72;;;19.35;38.82
63395;BME280;49531;-34.520;150.798;2023-05-24T00:50:40;101627.41;;;19.30;38.82
63395;BME280;49531;-34.520;150.798;2023-05-24T00:53:09;101622.13;;;19.36;38.72
63395;BME280;49531;-34.520;150.798;2023-05-24T00:55:37;101620.00;;;19.38;38.91
63395;BME280;49531;-34.520;150.798;2023-05-24T00:58:04;101604.59;;;19.38;37.98
63395;BME280;49531;-34.520;150.798;2023-05-24T01:00:31;101603.44;;;19.46;38.35
63395;BME280;49531;-34.520;150.798;2023-05-24T01:02:59;101611.25;;;19.54;38.63
63395;BME280;49531;-34.520;150.798;2023-05-24T01:05:27;101609.16;;;19.56;38.61
63395;BME280;49531;-34.520;150.798;2023-05-24T01:08:09;101590.88;;;19.51;38.19
63395;BME280;49531;-34.520;150.798;2023-05-24T01:10:54;101604.06;;;19.59;38.49
63395;BME280;49531;-34.520;150.798;2023-05-24T01:13:30;101601.72;;;19.63;38.72
63395;BME280;49531;-34.520;150.798;2023-05-24T01:16:10;101587.00;;;19.59;38.64
63395;BME280;49531;-34.520;150.798;2023-05-24T01:18:40;101591.22;;;19.67;38.67
63395;BME280;49531;-34.520;150.798;2023-05-24T01:21:29;101580.63;;;19.65;38.05
63395;BME280;49531;-34.520;150.798;2023-05-24T01:24:19;101588.19;;;19.75;37.95
63395;BME280;49531;-34.520;150.798;2023-05-24T01:27:06;101571.31;;;19.73;38.27
63395;BME280;49531;-34.520;150.798;2023-05-24T01:29:35;101563.19;;;19.73;38.40
63395;BME280;49531;-34.520;150.798;2023-05-24T01:32:02;101571.69;;;19.88;37.09
63395;BME280;49531;-34.520;150.798;2023-05-24T01:34:30;101563.34;;;19.89;36.90
63395;BME280;49531;-34.520;150.798;2023-05-24T01:36:57;101555.78;;;19.91;35.87
63395;BME280;49531;-34.520;150.798;2023-05-24T01:39:27;101547.06;;;19.89;36.32
63395;BME280;49531;-34.520;150.798;2023-05-24T01:42:08;101564.25;;;20.07;35.74
63395;BME280;49531;-34.520;150.798;2023-05-24T01:44:46;101559.31;;;20.15;35.70
63395;BME280;49531;-34.520;150.798;2023-05-24T01:47:43;101553.53;;;20.23;35.32
63395;BME280;49531;-34.520;150.798;2023-05-24T01:50:22;101533.25;;;20.14;35.09
63395;BME280;49531;-34.520;150.798;2023-05-24T01:52:51;101538.91;;;20.24;34.70
63395;BME280;49531;-34.520;150.798;2023-05-24T01:55:20;101516.00;;;20.20;34.99
63395;BME280;49531;-34.520;150.798;2023-05-24T01:57:48;101530.38;;;20.33;34.84
63395;BME280;49531;-34.520;150.798;2023-05-24T02:00:17;101522.50;;;20.31;34.15
63395;BME280;49531;-34.520;150.798;2023-05-24T02:02:45;101459.84;;;19.92;33.61
63395;BME280;49531;-34.520;150.798;2023-05-24T02:05:13;101516.00;;;20.32;34.13
63395;BME280;49531;-34.520;150.798;2023-05-24T02:07:40;101519.06;;;20.36;34.46
63395;BME280;49531;-34.520;150.798;2023-05-24T02:10:08;101502.78;;;20.36;34.96
63395;BME280;49531;-34.520;150.798;2023-05-24T02:12:35;101507.97;;;20.37;35.27
63395;BME280;49531;-34.520;150.798;2023-05-24T02:15:02;101504.22;;;20.38;35.53
63395;BME280;49531;-34.520;150.798;2023-05-24T02:17:30;101494.19;;;20.39;36.13
63395;BME280;49531;-34.520;150.798;2023-05-24T02:19:58;101494.50;;;20.42;36.39
63395;BME280;49531;-34.520;150.798;2023-05-24T02:22:26;101493.19;;;20.45;36.80
63395;BME280;49531;-34.520;150.798;2023-05-24T02:24:53;101486.72;;;20.46;36.88
63395;BME280;49531;-34.520;150.798;2023-05-24T02:27:21;101485.88;;;20.45;37.23
63395;BME280;49531;-34.520;150.798;2023-05-24T02:29:48;101484.59;;;20.48;37.69
63395;BME280;49531;-34.520;150.798;2023-05-24T02:32:15;101473.88;;;20.41;37.88
63395;BME280;49531;-34.520;150.798;2023-05-24T02:34:42;101467.63;;;20.41;38.14
63395;BME280;49531;-34.520;150.798;2023-05-24T02:37:10;101469.59;;;20.45;38.11
63395;BME280;49531;-34.520;150.798;2023-05-24T02:39:40;101468.31;;;20.48;38.35
63395;BME280;49531;-34.520;150.798;2023-05-24T02:42:08;101469.13;;;20.48;38.54
63395;BME280;49531;-34.520;150.798;2023-05-24T02:44:36;101461.69;;;20.44;38.63
63395;BME280;49531;-34.520;150.798;2023-05-24T02:47:03;101464.53;;;20.49;38.43
63395;BME280;49531;-34.520;150.798;2023-05-24T02:49:31;101455.78;;;20.47;38.56
63395;BME280;49531;-34.520;150.798;2023-05-24T02:51:58;101451.66;;;20.44;38.63
63395;BME280;49531;-34.520;150.798;2023-05-24T02:54:25;101451.19;;;20.47;38.38
63395;BME280;49531;-34.520;150.798;2023-05-24T02:56:52;101442.63;;;20.39;38.60
63395;BME280;49531;-34.520;150.798;2023-05-24T02:59:22;101458.75;;;20.45;38.18
63395;BME280;49531;-34.520;150.798;2023-05-24T03:01:49;101451.19;;;20.47;38.34
63395;BME280;49531;-34.520;150.798;2023-05-24T03:04:16;101440.91;;;20.49;38.37
63395;BME280;49531;-34.520;150.798;2023-05-24T03:06:44;101447.66;;;20.47;38.36
63395;BME280;49531;-34.520;150.798;2023-05-24T03:09:12;101435.06;;;20.41;38.50
63395;BME280;49531;-34.520;150.798;2023-05-24T03:11:41;101445.75;;;20.47;38.63
63395;BME280;49531;-34.520;150.798;2023-05-24T03:14:08;101444.94;;;20.47;38.65
63395;BME280;49531;-34.520;150.798;2023-05-24T03:16:36;101446.94;;;20.51;38.78
63395;BME280;49531;-34.520;150.798;2023-05-24T03:19:04;101438.69;;;20.46;38.90
63395;BME280;49531;-34.520;150.798;2023-05-24T03:21:31;101433.84;;;20.48;38.73
63395;BME280;49531;-34.520;150.798;2023-05-24T03:23:58;101417.41;;;20.38;38.68
63395;BME280;49531;-34.520;150.798;2023-05-24T03:26:25;101429.00;;;20.50;38.78
63395;BME280;49531;-34.520;150.798;2023-05-24T03:28:52;101435.50;;;20.49;38.77
63395;BME280;49531;-34.520;150.798;2023-05-24T03:31:20;101425.84;;;20.42;38.68
63395;BME280;49531;-34.520;150.798;2023-05-24T03:33:49;101421.69;;;20.51;38.83
63395;BME280;49531;-34.520;150.798;2023-05-24T03:36:16;101420.75;;;20.45;38.97
63395;BME280;49531;-34.520;150.798;2023-05-24T03:38:44;101410.97;;;20.44;39.05
63395;BME280;49531;-34.520;150.798;2023-05-24T03:41:11;101416.97;;;20.46;39.34
63395;BME280;49531;-34.520;150.798;2023-05-24T03:43:38;101401.41;;;20.42;39.50
63395;BME280;49531;-34.520;150.798;2023-05-24T03:46:05;101406.13;;;20.46;39.68
63395;BME280;49531;-34.520;150.798;2023-05-24T03:48:32;101398.22;;;20.45;39.72
63395;BME280;49531;-34.520;150.798;2023-05-24T03:50:59;101410.97;;;20.44;39.78
63395;BME280;49531;-34.520;150.798;2023-05-24T03:53:26;101385.19;;;20.30;39.96
63395;BME280;49531;-34.520;150.798;2023-05-24T03:55:54;101400.06;;;20.39;40.02
63395;BME280;49531;-34.520;150.798;2023-05-24T03:58:21;101402.50;;;20.41;40.11
63395;BME280;49531;-34.520;150.798;2023-05-24T04:00:48;101402.25;;;20.42;40.17
63395;BME280;49531;-34.520;150.798;2023-05-24T04:03:15;101400.84;;;20.40;40.09
63395;BME280;49531;-34.520;150.798;2023-05-24T04:05:45;101400.06;;;20.39;40.00
63395;BME280;49531;-34.520;150.798;2023-05-24T04:08:13;101398.72;;;20.42;39.90
63395;BME280;49531;-34.520;150.798;2023-05-24T04:10:40;101405.19;;;20.41;39.85
63395;BME280;49531;-34.520;150.798;2023-05-24T04:13:08;101393.44;;;20.35;39.90
63395;BME280;49531;-34.520;150.798;2023-05-24T04:15:35;101400.59;;;20.41;39.83
63395;BME280;49531;-34.520;150.798;2023-05-24T04:18:04;101394.88;;;20.38;39.82
63395;BME280;49531;-34.520;150.798;2023-05-24T04:20:32;101385.88;;;20.37;39.67
63395;BME280;49531;-34.520;150.798;2023-05-24T04:22:59;101380.44;;;20.37;39.52
63395;BME280;49531;-34.520;150.798;2023-05-24T04:25:26;101396.34;;;20.45;39.46
63395;BME280;49531;-34.520;150.798;2023-05-24T04:27:53;101393.03;;;20.43;39.51
63395;BME280;49531;-34.520;150.798;2023-05-24T04:30:21;101378.78;;;20.36;39.29
63395;BME280;49531;-34.520;150.798;2023-05-24T04:32:48;101389.84;;;20.46;39.26
63395;BME280;49531;-34.520;150.798;2023-05-24T04:35:16;101384.59;;;20.56;39.41
63395;BME280;49531;-34.520;150.798;2023-05-24T04:37:44;101376.56;;;20.61;39.45
63395;BME280;49531;-34.520;150.798;2023-05-24T04:40:13;101391.53;;;20.81;39.39
63395;BME280;49531;-34.520;150.798;2023-05-24T04:42:42;101381.09;;;20.89;39.55
63395;BME280;49531;-34.520;150.798;2023-05-24T04:45:09;101371.97;;;20.95;39.69
63395;BME280;49531;-34.520;150.798;2023-05-24T04:47:36;101372.28;;;20.99;39.62
63395;BME280;49531;-34.520;150.798;2023-05-24T04:50:04;101374.50;;;21.02;39.65
63395;BME280;49531;-34.520;150.798;2023-05-24T04:52:31;101375.41;;;21.08;39.86
63395;BME280;49531;-34.520;150.798;2023-05-24T04:54:58;101375.25;;;21.14;39.73
63395;BME280;49531;-34.520;150.798;2023-05-24T04:57:26;101370.97;;;21.18;39.93
63395;BME280;49531;-34.520;150.798;2023-05-24T04:59:53;101363.97;;;21.22;39.93
63395;BME280;49531;-34.520;150.798;2023-05-24T05:02:20;101368.66;;;21.27;39.95
63395;BME280;49531;-34.520;150.798;2023-05-24T05:04:47;101366.00;;;21.32;40.07
63395;BME280;49531;-34.520;150.798;2023-05-24T05:07:14;101360.34;;;21.34;40.17
63395;BME280;49531;-34.520;150.798;2023-05-24T05:09:42;101364.63;;;21.29;40.24
63395;BME280;49531;-34.520;150.798;2023-05-24T05:12:09;101367.97;;;21.37;40.23
63395;BME280;49531;-34.520;150.798;2023-05-24T05:14:36;101373.50;;;21.42;40.23
63395;BME280;49531;-34.520;150.798;2023-05-24T05:17:03;101361.47;;;21.38;40.37
63395;BME280;49531;-34.520;150.798;2023-05-24T05:19:30;101364.84;;;21.45;40.48
63395;BME280;49531;-34.520;150.798;2023-05-24T05:21:58;101375.78;;;21.50;40.37
63395;BME280;49531;-34.520;150.798;2023-05-24T05:24:26;101366.75;;;21.44;40.35
63395;BME280;49531;-34.520;150.798;2023-05-24T05:26:53;101364.66;;;21.51;40.49
63395;BME280;49531;-34.520;150.798;2023-05-24T05:29:20;101364.34;;;21.48;40.57
63395;BME280;49531;-34.520;150.798;2023-05-24T05:31:47;101367.63;;;21.50;40.57
63395;BME280;49531;-34.520;150.798;2023-05-24T05:34:14;101362.78;;;21.52;40.47
63395;BME280;49531;-34.520;150.798;2023-05-24T05:36:41;101365.00;;;21.55;40.82
63395;BME280;49531;-34.520;150.798;2023-05-24T05:39:08;101348.53;;;21.45;40.70
63395;BME280;49531;-34.520;150.798;2023-05-24T05:41:38;101363.09;;;21.55;40.75
63395;BME280;49531;-34.520;150.798;2023-05-24T05:44:05;101369.38;;;21.61;40.74
63395;BME280;49531;-34.520;150.798;2023-05-24T05:46:32;101364.19;;;21.59;40.80
63395;BME280;49531;-34.520;150.798;2023-05-24T05:48:59;101372.69;;;21.63;40.79
63395;BME280;49531;-34.520;150.798;2023-05-24T05:51:26;101362.31;;;21.60;40.84
63395;BME280;49531;-34.520;150.798;2023-05-24T05:53:54;101364.19;;;21.59;40.86
63395;BME280;49531;-34.520;150.798;2023-05-24T05:56:21;101340.44;;;21.50;40.88
63395;BME280;49531;-34.520;150.798;2023-05-24T05:58:48;101340.97;;;21.47;40.96
63395;BME280;49531;-34.520;150.798;2023-05-24T06:01:15;101361.78;;;21.58;41.16
63395;BME280;49531;-34.520;150.798;2023-05-24T06:03:42;101354.13;;;21.55;41.17
63395;BME280;49531;-34.520;150.798;2023-05-24T06:06:09;101356.59;;;21.56;41.19
63395;BME280;49531;-34.520;150.798;2023-05-24T06:08:36;101353.63;;;21.58;41.15
63395;BME280;49531;-34.520;150.798;2023-05-24T06:11:06;101351.97;;;21.57;41.16
63395;BME280;49531;-34.520;150.798;2023-05-24T06:13:33;101355.25;;;21.59;41.16
63395;BME280;49531;-34.520;150.798;2023-05-24T06:16:00;101356.88;;;21.60;41.12
63395;BME280;49531;-34.520;150.798;2023-05-24T06:18:27;101347.66;;;21.61;41.17
63395;BME280;49531;-34.520;150.798;2023-05-24T06:20:55;101355.81;;;21.61;41.24
63395;BME280;49531;-34.520;150.798;2023-05-24T06:23:23;101352.00;;;21.62;41.03
63395;BME280;49531;-34.520;150.798;2023-05-24T06:25:50;101338.75;;;21.44;41.04
63395;BME280;49531;-34.520;150.798;2023-05-24T06:28:17;101355.50;;;21.57;41.20
63395;BME280;49531;-34.520;150.798;2023-05-24T06:30:46;101350.81;;;21.53;41.15
63395;BME280;49531;-34.520;150.798;2023-05-24T06:33:13;101348.69;;;21.55;40.99
63395;BME280;49531;-34.520;150.798;2023-05-24T06:35:40;101359.88;;;21.58;40.88
63395;BME280;49531;-34.520;150.798;2023-05-24T06:38:07;101354.94;;;21.55;41.00
63395;BME280;49531;-34.520;150.798;2023-05-24T06:40:34;101364.50;;;21.58;40.96
63395;BME280;49531;-34.520;150.798;2023-05-24T06:43:02;101351.41;;;21.55;40.81
63395;BME280;49531;-34.520;150.798;2023-05-24T06:45:32;101360.94;;;21.57;40.94
63395;BME280;49531;-34.520;150.798;2023-05-24T06:47:59;101334.88;;;21.40;40.99
63395;BME280;49531;-34.520;150.798;2023-05-24T06:50:26;101351.06;;;21.51;40.95
63395;BME280;49531;-34.520;150.798;2023-05-24T06:52:53;101357.59;;;21.50;40.88
63395;BME280;49531;-34.520;150.798;2023-05-24T06:55:21;101362.19;;;21.50;41.16
63395;BME280;49531;-34.520;150.798;2023-05-24T06:57:48;101354.22;;;21.43;41.19
63395;BME280;49531;-34.520;150.798;2023-05-24T07:00:15;101360.22;;;21.45;41.21
63395;BME280;49531;-34.520;150.798;2023-05-24T07:02:42;101356.63;;;21.40;41.22
63395;BME280;49531;-34.520;150.798;2023-05-24T07:05:09;101356.03;;;21.38;41.08
63395;BME280;49531;-34.520;150.798;2023-05-24T07:07:38;101346.81;;;21.39;41.12
63395;BME280;49531;-34.520;150.798;2023-05-24T07:10:07;101351.50;;;21.43;40.86
63395;BME280;49531;-34.520;150.798;2023-05-24T07:12:36;101362.63;;;21.42;41.15
63395;BME280;49531;-34.520;150.798;2023-05-24T07:15:04;101368.06;;;21.42;41.30
63395;BME280;49531;-34.520;150.798;2023-05-24T07:17:32;101362.06;;;21.40;41.35
63395;BME280;49531;-34.520;150.798;2023-05-24T07:20:00;101361.22;;;21.39;41.33
63395;BME280;49531;-34.520;150.798;2023-05-24T07:22:27;101364.78;;;21.40;41.02
63395;BME280;49531;-34.520;150.798;2023-05-24T07:24:57;101363.03;;;21.34;41.10
63395;BME280;49531;-34.520;150.798;2023-05-24T07:27:24;101372.59;;;21.36;41.19
63395;BME280;49531;-34.520;150.798;2023-05-24T07:29:51;101372.59;;;21.36;41.06
63395;BME280;49531;-34.520;150.798;2023-05-24T07:32:19;101379.94;;;21.36;40.96
63395;BME280;49531;-34.520;150.798;2023-05-24T07:34:46;101378.84;;;21.37;41.02
63395;BME280;49531;-34.520;150.798;2023-05-24T07:37:13;101373.09;;;21.33;40.98
63395;BME280;49531;-34.520;150.798;2023-05-24T07:39:41;101355.00;;;21.22;41.09
63395;BME280;49531;-34.520;150.798;2023-05-24T07:42:09;101379.94;;;21.36;40.89
63395;BME280;49531;-34.520;150.798;2023-05-24T07:44:36;101378.22;;;21.29;40.84
63395;BME280;49531;-34.520;150.798;2023-05-24T07:47:03;101386.44;;;21.35;40.98
63395;BME280;49531;-34.520;150.798;2023-05-24T07:49:30;101376.63;;;21.34;40.88
63395;BME280;49531;-34.520;150.798;2023-05-24T07:51:57;101376.56;;;21.28;40.74
63395;BME280;49531;-34.520;150.798;2023-05-24T07:54:25;101370.22;;;21.23;40.91
63395;BME280;49531;-34.520;150.798;2023-05-24T07:56:52;101386.94;;;21.32;40.97
63395;BME280;49531;-34.520;150.798;2023-05-24T07:59:19;101380.84;;;21.24;40.96
63395;BME280;49531;-34.520;150.798;2023-05-24T08:01:48;101379.78;;;21.25;40.83
63395;BME280;49531;-34.520;150.798;2023-05-24T08:04:15;101377.56;;;21.22;40.92
63395;BME280;49531;-34.520;150.798;2023-05-24T08:06:42;101375.41;;;21.24;40.87
63395;BME280;49531;-34.520;150.798;2023-05-24T08:09:11;101380.50;;;21.21;40.82
63395;BME280;49531;-34.520;150.798;2023-05-24T08:11:38;101370.16;;;21.18;40.93
63395;BME280;49531;-34.520;150.798;2023-05-24T08:14:07;101377.47;;;21.17;41.01
63395;BME280;49531;-34.520;150.798;2023-05-24T08:16:34;101374.69;;;21.12;40.93
63395;BME280;49531;-34.520;150.798;2023-05-24T08:19:01;101379.03;;;21.13;40.86
63395;BME280;49531;-34.520;150.798;2023-05-24T08:21:28;101366.44;;;21.07;41.05
63395;BME280;49531;-34.520;150.798;2023-05-24T08:23:56;101360.44;;;21.05;40.94
63395;BME280;49531;-34.520;150.798;2023-05-24T08:26:24;101371.31;;;21.05;40.95
63395;BME280;49531;-34.520;150.798;2023-05-24T08:28:51;101369.31;;;21.01;40.36
63395;BME280;49531;-34.520;150.798;2023-05-24T08:31:19;101361.66;;;20.97;40.31
63395;BME280;49531;-34.520;150.798;2023-05-24T08:33:47;101371.22;;;21.00;40.17
63395;BME280;49531;-34.520;150.798;2023-05-24T08:36:16;101369.00;;;20.97;40.48
63395;BME280;49531;-34.520;150.798;2023-05-24T08:38:44;101386.94;;;20.98;40.19
63395;BME280;49531;-34.520;150.798;2023-05-24T08:41:11;101392.84;;;20.95;40.24
63395;BME280;49531;-34.520;150.798;2023-05-24T08:43:38;101403.63;;;20.90;40.36
63395;BME280;49531;-34.520;150.798;2023-05-24T08:46:06;101412.84;;;20.89;40.14
63395;BME280;49531;-34.520;150.798;2023-05-24T08:48:43;101414.66;;;20.83;40.25
63395;BME280;49531;-34.520;150.798;2023-05-24T08:51:14;101408.72;;;20.70;40.42
63395;BME280;49531;-34.520;150.798;2023-05-24T08:53:43;101420.41;;;20.70;40.61
63395;BME280;49531;-34.520;150.798;2023-05-24T08:56:17;101427.84;;;20.75;40.74
63395;BME280;49531;-34.520;150.798;2023-05-24T08:58:45;101415.72;;;20.66;40.49
63395;BME280;49531;-34.520;150.798;2023-05-24T09:01:13;101422.78;;;20.67;40.75
63395;BME280;49531;-34.520;150.798;2023-05-24T09:03:44;101414.91;;;20.65;40.63
63395;BME280;49531;-34.520;150.798;2023-05-24T09:06:12;101417.38;;;20.67;40.57
63395;BME280;49531;-34.520;150.798;2023-05-24T09:08:42;101425.50;;;20.67;40.85
63395;BME280;49531;-34.520;150.798;2023-05-24T09:11:11;101422.47;;;20.63;40.67
63395;BME280;49531;-34.520;150.798;2023-05-24T09:13:40;101428.94;;;20.62;40.84
63395;BME280;49531;-34.520;150.798;2023-05-24T09:16:08;101431.31;;;20.58;40.93
63395;BME280;49531;-34.520;150.798;2023-05-24T09:18:35;101415.53;;;20.55;40.85
63395;BME280;49531;-34.520;150.798;2023-05-24T09:21:02;101420.38;;;20.53;40.89
63395;BME280;49531;-34.520;150.798;2023-05-24T09:23:29;101420.28;;;20.48;41.02
63395;BME280;49531;-34.520;150.798;2023-05-24T09:25:56;101417.31;;;20.50;40.93
63395;BME280;49531;-34.520;150.798;2023-05-24T09:28:24;101412.97;;;20.49;40.94
63395;BME280;49531;-34.520;150.798;2023-05-24T09:31:00;101414.03;;;20.48;40.98
63395;BME280;49531;-34.520;150.798;2023-05-24T09:33:30;101415.56;;;20.44;41.05
63395;BME280;49531;-34.520;150.798;2023-05-24T09:36:00;101408.75;;;20.41;40.99
63395;BME280;49531;-34.520;150.798;2023-05-24T09:38:27;101404.03;;;20.37;41.06
63395;BME280;49531;-34.520;150.798;2023-05-24T09:41:01;101402.63;;;20.34;40.94
63395;BME280;49531;-34.520;150.798;2023-05-24T09:43:30;101400.97;;;20.33;41.11
63395;BME280;49531;-34.520;150.798;2023-05-24T09:45:58;101405.81;;;20.31;41.02
63395;BME280;49531;-34.520;150.798;2023-05-24T09:48:25;101389.59;;;20.19;40.87
63395;BME280;49531;-34.520;150.798;2023-05-24T09:51:02;101400.78;;;20.23;41.16
63395;BME280;49531;-34.520;150.798;2023-05-24T09:53:32;101396.41;;;20.22;40.91
63395;BME280;49531;-34.520;150.798;2023-05-24T09:55:59;101393.03;;;20.15;40.90
63395;BME280;49531;-34.520;150.798;2023-05-24T09:58:29;101396.31;;;20.17;40.94
63395;BME280;49531;-34.520;150.798;2023-05-24T10:01:07;101391.28;;;20.09;41.13
63395;BME280;49531;-34.520;150.798;2023-05-24T10:03:34;101390.59;;;20.02;41.27
63395;BME280;49531;-34.520;150.798;2023-05-24T10:06:04;101397.06;;;20.01;41.25
63395;BME280;49531;-34.520;150.798;2023-05-24T10:08:33;101384.88;;;19.86;41.09
63395;BME280;49531;-34.520;150.798;2023-05-24T10:11:02;101375.91;;;19.86;40.92
63395;BME280;49531;-34.520;150.798;2023-05-24T10:13:31;101387.69;;;19.91;40.90
63395;BME280;49531;-34.520;150.798;2023-05-24T10:16:02;101362.63;;;19.73;40.73
63395;BME280;49531;-34.520;150.798;2023-05-24T10:18:29;101383.22;;;19.85;40.58
63395;BME280;49531;-34.520;150.798;2023-05-24T10:20:57;101391.94;;;19.87;40.61
63395;BME280;49531;-34.520;150.798;2023-05-24T10:23:29;101395.03;;;19.79;40.52
63395;BME280;49531;-34.520;150.798;2023-05-24T10:26:05;101391.47;;;19.79;40.52
63395;BME280;49531;-34.520;150.798;2023-05-24T10:28:43;101400.09;;;19.76;40.15
63395;BME280;49531;-34.520;150.798;2023-05-24T10:31:31;101405.16;;;19.72;40.07
63395;BME280;49531;-34.520;150.798;2023-05-24T10:34:02;101401.88;;;19.70;40.22
63395;BME280;49531;-34.520;150.798;2023-05-24T10:36:29;101397.75;;;19.68;40.01
63395;BME280;49531;-34.520;150.798;2023-05-24T10:38:58;101391.97;;;19.64;40.07
63395;BME280;49531;-34.520;150.798;2023-05-24T10:41:25;101389.50;;;19.62;40.10
63395;BME280;49531;-34.520;150.798;2023-05-24T10:43:54;101391.38;;;19.62;39.64
63395;BME280;49531;-34.520;150.798;2023-05-24T10:46:23;101398.38;;;19.58;39.97
63395;BME280;49531;-34.520;150.798;2023-05-24T10:48:59;101384.13;;;19.51;39.81
63395;BME280;49531;-34.520;150.798;2023-05-24T10:51:33;101391.38;;;19.50;39.76
63395;BME280;49531;-34.520;150.798;2023-05-24T10:54:13;101397.50;;;19.46;39.42
63395;BME280;49531;-34.520;150.798;2023-05-24T10:56:45;101390.81;;;19.48;39.67
63395;BME280;49531;-34.520;150.798;2023-05-24T10:59:30;101393.16;;;19.45;39.49
63395;BME280;49531;-34.520;150.798;2023-05-24T11:02:00;101410.34;;;19.39;39.22
63395;BME280;49531;-34.520;150.798;2023-05-24T11:04:37;101403.16;;;19.32;39.43
63395;BME280;49531;-34.520;150.798;2023-05-24T11:07:06;101410.00;;;19.35;39.41
63395;BME280;49531;-34.520;150.798;2023-05-24T11:09:36;101412.13;;;19.33;39.40
63395;BME280;49531;-34.520;150.798;2023-05-24T11:12:07;101403.88;;;19.28;39.23
63395;BME280;49531;-34.520;150.798;2023-05-24T11:14:37;101408.47;;;19.27;39.06
63395;BME280;49531;-34.520;150.798;2023-05-24T11:17:06;101407.03;;;19.25;39.20
63395;BME280;49531;-34.520;150.798;2023-05-24T11:19:37;101405.63;;;19.22;39.04
63395;BME280;49531;-34.520;150.798;2023-05-24T11:22:07;101406.09;;;19.19;38.77
63395;BME280;49531;-34.520;150.798;2023-05-24T11:24:34;101397.06;;;19.14;38.72
63395;BME280;49531;-34.520;150.798;2023-05-24T11:27:02;101403.53;;;19.13;38.78
63395;BME280;49531;-34.520;150.798;2023-05-24T11:29:32;101396.69;;;19.10;38.87
63395;BME280;49531;-34.520;150.798;2023-05-24T11:31:59;101395.50;;;19.06;38.72
63395;BME280;49531;-34.520;150.798;2023-05-24T11:34:30;101394.78;;;18.99;38.87
63395;BME280;49531;-34.520;150.798;2023-05-24T11:36:59;101399.28;;;19.05;38.51
63395;BME280;49531;-34.520;150.798;2023-05-24T11:39:31;101398.91;;;19.02;38.46
63395;BME280;49531;-34.520;150.798;2023-05-24T11:41:59;101395.84;;;18.98;38.62
63395;BME280;49531;-34.520;150.798;2023-05-24T11:44:30;101401.13;;;18.93;38.59
63395;BME280;49531;-34.520;150.798;2023-05-24T11:46:58;101383.00;;;18.82;38.55
63395;BME280;49531;-34.520;150.798;2023-05-24T11:49:26;101395.97;;;18.91;38.74
63395;BME280;49531;-34.520;150.798;2023-05-24T11:51:55;101407.00;;;18.90;38.97
63395;BME280;49531;-34.520;150.798;2023-05-24T11:54:23;101399.94;;;18.89;38.91
63395;BME280;49531;-34.520;150.798;2023-05-24T11:56:52;101392.53;;;18.84;38.69
63395;BME280;49531;-34.520;150.798;2023-05-24T11:59:26;101392.66;;;18.78;38.60
63395;BME280;49531;-34.520;150.798;2023-05-24T12:01:58;101386.41;;;18.77;38.25
63395;BME280;49531;-34.520;150.798;2023-05-24T12:04:26;101392.66;;;18.78;38.60
63395;BME280;49531;-34.520;150.798;2023-05-24T12:06:54;101381.59;;;18.79;38.70
63395;BME280;49531;-34.520;150.798;2023-05-24T12:09:22;101376.06;;;18.74;38.60
63395;BME280;49531;-34.520;150.798;2023-05-24T12:11:50;101377.34;;;18.72;38.63
63395;BME280;49531;-34.520;150.798;2023-05-24T12:14:23;101372.16;;;18.70;38.89
63395;BME280;49531;-34.520;150.798;2023-05-24T12:16:54;101364.38;;;18.62;38.82
63395;BME280;49531;-34.520;150.798;2023-05-24T12:19:23;101361.28;;;18.58;38.91
63395;BME280;49531;-34.520;150.798;2023-05-24T12:21:56;101357.09;;;18.62;39.10
63395;BME280;49531;-34.520;150.798;2023-05-24T12:24:25;101363.53;;;18.61;38.94
63395;BME280;49531;-34.520;150.798;2023-05-24T12:26:58;101347.16;;;18.56;39.07
63395;BME280;49531;-34.520;150.798;2023-05-24T12:29:31;101349.63;;;18.58;39.09